Time;durP1;ratioP1;P1;durP2;ratioP2;P2;SDS_P1;SDS_P2;PMS_P1;PMS_P2;Temp;Humidity;BMP_temperature;BMP_pressure;BME280_temperature;BME280_humidity;BME280_pressure;Samples;Min_cycle;Max_cycle;Signal;HPM_P1;HPM_P2
2021/05/22 00:00:44;;;;;;;7.57;1.40;;;;;;;10.90;77.69;100508.50;5049373;28;20151;-76
2021/05/22 00:03:09;;;;;;;4.30;1.27;;;;;;;11.04;76.86;100524.97;5072745;28;20111;-78
2021/05/22 00:05:35;;;;;;;2.33;1.15;;;;;;;11.17;75.94;100514.63;5059116;28;20113;-78
2021/05/22 00:08:01;;;;;;;3.65;1.17;;;;;;;11.07;76.71;100509.19;5073305;28;20048;-76
2021/05/22 00:10:26;;;;;;;5.97;1.67;;;;;;;11.02;77.03;100517.19;5067769;28;20528;-75
2021/05/22 00:12:52;;;;;;;2.60;1.30;;;;;;;10.96;77.73;100515.53;5049725;28;20103;-76
2021/05/22 00:15:18;;;;;;;3.03;1.30;;;;;;;11.00;77.53;100519.31;5067792;28;20051;-75
2021/05/22 00:17:45;;;;;;;4.65;1.38;;;;;;;10.93;78.55;100518.72;5061140;28;20466;-78
2021/05/22 00:20:11;;;;;;;2.53;1.40;;;;;;;10.89;78.64;100513.06;5060914;28;20086;-78
2021/05/22 00:22:37;;;;;;;4.10;1.70;;;;;;;10.86;78.86;100515.44;5059214;28;20044;-77
2021/05/22 00:25:04;;;;;;;2.33;1.30;;;;;;;10.86;78.92;100507.41;5075751;28;20386;-80
2021/05/22 00:27:30;;;;;;;5.07;1.60;;;;;;;10.81;79.50;100499.34;5059271;28;20035;-73
2021/05/22 00:29:55;;;;;;;3.13;1.35;;;;;;;10.79;79.49;100485.38;5070403;28;20027;-76
2021/05/22 00:32:21;;;;;;;2.97;1.58;;;;;;;10.73;79.81;100481.03;5053045;28;20044;-75
2021/05/22 00:34:46;;;;;;;1.58;1.27;;;;;;;10.68;80.32;100464.91;5056454;28;20032;-78
2021/05/22 00:37:12;;;;;;;5.25;1.80;;;;;;;10.58;80.78;100452.22;5057277;28;20027;-77
2021/05/22 00:39:37;;;;;;;2.22;1.50;;;;;;;10.49;80.68;100437.69;5075091;28;20035;-79
2021/05/22 00:42:05;;;;;;;7.55;1.52;;;;;;;10.37;81.02;100440.53;5074338;28;20044;-78
2021/05/22 00:44:32;;;;;;;4.75;1.55;;;;;;;10.17;81.87;100419.69;5068262;28;20035;-79
2021/05/22 00:47:01;;;;;;;4.68;1.80;;;;;;;9.99;82.47;100412.81;5057324;28;20069;-79
2021/05/22 00:49:27;;;;;;;3.85;1.50;;;;;;;9.84;83.22;100409.16;5075014;28;20078;-76
2021/05/22 00:51:53;;;;;;;3.05;1.77;;;;;;;9.70;83.70;100406.09;5050873;28;20123;-78
2021/05/22 00:54:19;;;;;;;2.60;1.60;;;;;;;9.62;83.73;100410.00;5064044;28;20060;-75
2021/05/22 00:56:47;;;;;;;6.38;1.77;;;;;;;9.55;83.95;100403.25;5051723;28;20056;-74
2021/05/22 00:59:18;;;;;;;3.15;1.75;;;;;;;9.41;84.39;100405.47;5069518;28;20031;-75
2021/05/22 01:01:44;;;;;;;5.07;2.00;;;;;;;9.32;84.83;100404.28;5071493;28;20103;-77
2021/05/22 01:04:10;;;;;;;3.60;1.88;;;;;;;9.18;85.72;100403.84;5071399;28;20021;-76
2021/05/22 01:06:36;;;;;;;6.13;1.95;;;;;;;9.15;86.02;100407.00;5069789;28;21359;-73
2021/05/22 01:09:08;;;;;;;4.05;2.20;;;;;;;9.06;86.51;100398.59;5064506;28;20035;-75
2021/05/22 01:11:39;;;;;;;4.60;2.40;;;;;;;9.08;85.73;100393.81;5055599;28;20712;-76
2021/05/22 01:14:15;;;;;;;5.28;2.05;;;;;;;9.01;86.47;100395.06;5054904;28;21393;-78
2021/05/22 01:16:42;;;;;;;6.43;2.58;;;;;;;9.10;85.08;100401.59;5054803;28;20028;-77
2021/05/22 01:19:15;;;;;;;6.00;1.75;;;;;;;9.07;84.94;100407.44;5051798;28;20029;-76
2021/05/22 01:21:41;;;;;;;5.03;2.40;;;;;;;9.06;84.70;100393.25;5055549;28;20038;-78
2021/05/22 01:24:12;;;;;;;4.88;1.90;;;;;;;9.03;84.90;100384.94;5056727;28;20060;-75
2021/05/22 01:26:39;;;;;;;4.63;2.20;;;;;;;9.03;84.67;100392.94;5066532;28;21923;-74
2021/05/22 01:29:06;;;;;;;8.65;2.20;;;;;;;8.95;85.17;100409.38;5057647;28;20497;-76
2021/05/22 01:31:35;;;;;;;4.80;1.90;;;;;;;8.78;88.13;100423.56;5065357;28;20028;-74
2021/05/22 01:34:01;;;;;;;4.85;1.77;;;;;;;8.99;85.16;100407.88;5046887;28;20030;-75
2021/05/22 01:36:26;;;;;;;6.32;2.30;;;;;;;8.86;85.58;100401.00;5068616;28;20941;-75
2021/05/22 01:38:52;;;;;;;5.53;2.42;;;;;;;8.61;88.72;100411.25;5049608;28;20027;-75
2021/05/22 01:41:17;;;;;;;2.60;2.13;;;;;;;8.69;87.13;100409.00;5070839;28;20111;-78
2021/05/22 01:43:48;;;;;;;5.72;2.10;;;;;;;8.69;85.87;100398.34;5061343;28;20036;-78
2021/05/22 01:46:15;;;;;;;3.97;2.00;;;;;;;8.60;85.99;100391.75;5061594;28;20089;-77
2021/05/22 01:48:41;;;;;;;2.85;2.50;;;;;;;8.55;85.73;100401.56;5048478;28;20565;-76
2021/05/22 01:51:11;;;;;;;4.57;2.40;;;;;;;8.43;85.53;100393.63;5071557;28;20038;-76
2021/05/22 01:53:40;;;;;;;4.32;2.50;;;;;;;8.34;85.71;100385.22;5073272;28;20093;-77
2021/05/22 01:56:07;;;;;;;4.75;2.50;;;;;;;8.36;84.89;100382.31;5047898;28;20038;-72
2021/05/22 01:58:33;;;;;;;3.70;2.30;;;;;;;8.17;85.88;100369.16;5046144;28;20056;-73
2021/05/22 02:00:59;;;;;;;3.55;2.30;;;;;;;8.17;85.10;100374.50;5064335;28;20600;-73
2021/05/22 02:03:33;;;;;;;3.10;2.45;;;;;;;8.16;84.91;100361.41;5063596;28;20100;-75
2021/05/22 02:06:01;;;;;;;10.13;3.30;;;;;;;8.17;84.41;100352.34;5050955;28;20028;-75
2021/05/22 02:08:28;;;;;;;10.50;2.70;;;;;;;8.09;84.86;100358.91;5063437;28;20066;-76
2021/05/22 02:10:54;;;;;;;5.25;2.72;;;;;;;8.07;84.72;100360.97;5046882;28;20478;-74
2021/05/22 02:13:19;;;;;;;5.22;3.05;;;;;;;8.00;84.78;100360.31;5049215;28;20032;-76
2021/05/22 02:15:50;;;;;;;4.78;3.15;;;;;;;7.89;85.75;100354.00;5050516;28;20029;-76
2021/05/22 02:18:17;;;;;;;5.30;2.58;;;;;;;7.77;86.30;100347.91;5053429;28;20055;-77
2021/05/22 02:20:46;;;;;;;5.60;2.25;;;;;;;7.68;86.63;100349.34;5065837;28;20032;-77
2021/05/22 02:23:14;;;;;;;2.83;2.47;;;;;;;7.65;87.92;100354.34;5070608;28;20028;-76
2021/05/22 02:25:39;;;;;;;2.80;2.38;;;;;;;7.65;88.10;100354.34;5047352;28;20256;-75
2021/05/22 02:28:08;;;;;;;8.57;2.47;;;;;;;7.66;87.24;100356.78;5068837;28;20123;-76
2021/05/22 02:30:35;;;;;;;5.75;2.50;;;;;;;7.69;86.32;100358.97;5049488;28;20115;-75
2021/05/22 02:33:04;;;;;;;3.80;2.53;;;;;;;7.67;86.33;100352.25;5052109;28;20100;-76
2021/05/22 02:35:31;;;;;;;4.13;2.88;;;;;;;7.61;86.61;100347.88;5046669;28;20035;-76
2021/05/22 02:37:57;;;;;;;5.93;2.80;;;;;;;7.56;87.26;100345.94;5050358;28;20020;-75
2021/05/22 02:40:29;;;;;;;4.55;2.80;;;;;;;7.53;87.73;100343.72;5047643;28;20044;-76
2021/05/22 02:43:08;;;;;;;8.10;3.33;;;;;;;7.54;87.96;100345.31;5063834;28;20024;-73
2021/05/22 02:45:38;;;;;;;6.18;3.30;;;;;;;7.63;86.98;100353.78;5064512;28;20430;-78
2021/05/22 02:48:08;;;;;;;5.65;3.50;;;;;;;7.59;87.75;100356.13;5064737;28;20028;-76
2021/05/22 02:50:35;;;;;;;6.43;3.40;;;;;;;7.63;87.27;100364.44;5060813;28;20043;-75
2021/05/22 02:53:01;;;;;;;7.45;3.47;;;;;;;7.60;88.17;100367.59;5050538;28;20032;-75
2021/05/22 02:55:28;;;;;;;5.38;3.42;;;;;;;7.68;88.28;100368.00;5065920;28;20024;-76
2021/05/22 02:57:55;;;;;;;5.95;3.05;;;;;;;7.77;88.92;100374.59;5052229;28;20032;-79
2021/05/22 03:00:21;;;;;;;5.97;3.58;;;;;;;7.77;89.75;100371.13;5059136;28;20397;-80
2021/05/22 03:02:47;;;;;;;7.45;3.97;;;;;;;7.83;91.42;100378.16;5052768;28;20025;-77
2021/05/22 03:05:13;;;;;;;7.50;4.57;;;;;;;7.92;90.31;100375.94;5054748;28;20032;-73
2021/05/22 03:07:40;;;;;;;6.38;4.25;;;;;;;7.92;90.01;100375.94;5071452;28;20036;-78
2021/05/22 03:10:06;;;;;;;6.53;4.43;;;;;;;7.91;91.33;100383.13;5056148;28;20032;-77
2021/05/22 03:12:34;;;;;;;7.93;4.90;;;;;;;7.92;90.66;100379.41;5047670;28;20789;-76
2021/05/22 03:15:00;;;;;;;6.55;4.38;;;;;;;7.92;91.43;100382.06;5066051;28;20510;-75
2021/05/22 03:17:26;;;;;;;8.25;4.95;;;;;;;7.98;90.29;100373.09;5068283;28;20090;-75
2021/05/22 03:19:52;;;;;;;7.75;5.35;;;;;;;8.03;89.70;100380.38;5053794;28;22560;-74
2021/05/22 03:22:17;;;;;;;9.60;4.75;;;;;;;8.09;89.50;100376.78;5061722;28;20089;-79
2021/05/22 03:24:43;;;;;;;7.53;4.70;;;;;;;8.03;91.11;100378.50;5079338;28;20044;-81
2021/05/22 03:27:09;;;;;;;5.65;4.35;;;;;;;8.11;89.47;100388.81;5059810;28;20115;-85
2021/05/22 03:29:35;;;;;;;7.20;5.10;;;;;;;8.06;90.83;100386.03;5061727;28;21473;-77
2021/05/22 03:32:00;;;;;;;6.82;5.38;;;;;;;8.15;89.64;100381.94;5058736;28;20119;-80
2021/05/22 03:34:26;;;;;;;5.95;5.20;;;;;;;8.22;88.97;100383.63;5073913;28;20110;-80
2021/05/22 03:36:52;;;;;;;5.93;4.93;;;;;;;8.28;88.55;100391.50;5058567;28;20074;-79
2021/05/22 03:39:18;;;;;;;7.50;5.03;;;;;;;8.37;87.34;100378.59;5059746;28;20025;-79
2021/05/22 03:41:44;;;;;;;7.13;4.88;;;;;;;8.38;87.39;100386.34;5062117;28;20450;-80
2021/05/22 03:44:10;;;;;;;6.55;5.05;;;;;;;8.44;87.57;100390.75;5073825;28;20052;-80
2021/05/22 03:46:35;;;;;;;10.38;5.82;;;;;;;8.56;87.02;100389.84;5059655;28;20077;-80
2021/05/22 03:49:01;;;;;;;6.18;4.53;;;;;;;8.65;86.82;100389.19;5061373;28;20119;-80
2021/05/22 03:51:26;;;;;;;5.68;4.47;;;;;;;8.81;85.71;100386.75;5062719;28;20082;-79
2021/05/22 03:53:52;;;;;;;6.40;4.70;;;;;;;8.92;84.82;100380.50;5061293;28;20077;-80
2021/05/22 03:56:18;;;;;;;7.55;5.00;;;;;;;8.98;84.88;100384.88;5061124;28;20030;-79
2021/05/22 03:58:43;;;;;;;6.88;4.78;;;;;;;9.07;84.68;100388.72;5079638;28;20032;-79
2021/05/22 04:01:09;;;;;;;8.57;4.38;;;;;;;9.21;83.55;100390.00;5081239;28;20319;-79
2021/05/22 04:03:34;;;;;;;7.47;4.43;;;;;;;9.26;83.36;100392.72;5060155;28;20044;-80
2021/05/22 04:06:00;;;;;;;5.75;4.60;;;;;;;9.29;84.20;100391.41;5063280;28;20063;-80
2021/05/22 04:08:25;;;;;;;5.70;4.32;;;;;;;9.36;84.44;100398.22;5060172;28;20024;-80
2021/05/22 04:10:51;;;;;;;9.45;4.03;;;;;;;9.47;84.09;100403.66;5062598;28;20039;-80
2021/05/22 04:13:16;;;;;;;5.45;4.20;;;;;;;9.59;83.62;100407.03;5062341;28;20023;-80
2021/05/22 04:15:42;;;;;;;5.78;3.85;;;;;;;9.69;82.56;100402.63;5078103;28;20107;-80
2021/05/22 04:18:10;;;;;;;5.38;4.30;;;;;;;9.76;82.11;100404.28;5061761;28;21032;-79
2021/05/22 04:20:36;;;;;;;7.32;4.13;;;;;;;9.93;81.42;100397.78;5060816;28;20560;-80
2021/05/22 04:23:03;;;;;;;5.63;3.70;;;;;;;10.11;81.04;100399.31;5065198;28;20034;-80
2021/05/22 04:25:28;;;;;;;6.95;3.50;;;;;;;10.34;79.68;100397.38;5081435;28;20040;-79
2021/05/22 04:27:54;;;;;;;6.18;4.03;;;;;;;10.45;79.01;100399.91;5051228;28;20032;-79
2021/05/22 04:30:20;;;;;;;7.97;4.28;;;;;;;10.52;79.41;100400.50;5048277;28;20028;-79
2021/05/22 04:32:46;;;;;;;5.43;3.47;;;;;;;10.67;78.57;100399.81;5067835;28;20032;-79
2021/05/22 04:35:12;;;;;;;7.18;4.00;;;;;;;10.82;77.76;100401.78;5048654;28;20673;-80
2021/05/22 04:37:38;;;;;;;5.88;3.42;;;;;;;10.73;78.81;100406.81;5053289;28;21429;-79
2021/05/22 04:40:05;;;;;;;8.55;3.85;;;;;;;10.84;78.10;100400.47;5075879;28;20074;-80
2021/05/22 04:42:31;;;;;;;7.10;3.55;;;;;;;10.90;77.91;100406.66;5078140;28;20028;-79
2021/05/22 04:44:56;;;;;;;5.18;3.40;;;;;;;10.66;78.66;100408.91;5070846;28;20029;-80
2021/05/22 04:47:22;;;;;;;4.75;3.42;;;;;;;10.99;77.42;100405.13;5057499;28;20031;-79
2021/05/22 04:49:48;;;;;;;6.78;3.75;;;;;;;10.99;77.11;100415.03;5074748;28;20024;-80
2021/05/22 04:52:13;;;;;;;5.10;3.38;;;;;;;11.13;76.95;100413.50;5061356;28;20123;-80
2021/05/22 04:54:38;;;;;;;8.13;3.40;;;;;;;11.32;75.80;100419.25;5075567;28;20031;-79
2021/05/22 04:57:05;;;;;;;4.88;3.30;;;;;;;11.51;75.63;100420.41;5060583;28;20028;-80
2021/05/22 04:59:31;;;;;;;4.57;3.40;;;;;;;11.70;74.48;100421.56;5063062;28;20026;-79
2021/05/22 05:01:56;;;;;;;4.43;3.13;;;;;;;11.80;74.15;100418.09;5076001;28;20028;-80
2021/05/22 05:04:22;;;;;;;5.57;2.80;;;;;;;12.14;72.67;100415.78;5060348;28;20885;-79
2021/05/22 05:06:47;;;;;;;5.03;2.80;;;;;;;11.79;74.51;100409.25;5059336;28;20987;-80
2021/05/22 05:09:13;;;;;;;4.40;3.53;;;;;;;11.75;74.84;100413.50;5060020;28;20075;-79
2021/05/22 05:11:38;;;;;;;7.70;3.60;;;;;;;11.94;74.12;100403.13;5078125;28;20106;-80
2021/05/22 05:14:04;;;;;;;6.40;3.67;;;;;;;11.93;74.45;100403.38;5057583;28;20027;-80
2021/05/22 05:16:29;;;;;;;4.60;3.35;;;;;;;12.17;73.43;100401.81;5062513;28;20027;-80
2021/05/22 05:18:55;;;;;;;7.65;3.60;;;;;;;12.24;73.40;100394.31;5058675;28;20056;-80
2021/05/22 05:21:21;;;;;;;4.75;3.05;;;;;;;12.26;73.71;100397.53;5059853;28;20021;-80
2021/05/22 05:23:46;;;;;;;6.13;3.50;;;;;;;12.37;73.17;100409.88;5061093;28;20039;-80
2021/05/22 05:26:12;;;;;;;3.97;2.97;;;;;;;11.78;74.45;100409.50;5056495;28;20024;-79
2021/05/22 05:28:38;;;;;;;5.68;3.40;;;;;;;11.79;75.88;100409.25;5060581;28;20043;-80
2021/05/22 05:31:04;;;;;;;4.65;3.13;;;;;;;11.73;75.84;100407.59;5075783;28;21420;-80
2021/05/22 05:33:30;;;;;;;8.05;3.45;;;;;;;11.77;76.05;100408.69;5057414;28;20032;-80
2021/05/22 05:35:56;;;;;;;7.60;3.15;;;;;;;11.90;74.84;100399.38;5060905;28;20024;-80
2021/05/22 05:38:21;;;;;;;6.63;2.92;;;;;;;11.96;73.56;100392.91;5055756;28;20035;-80
2021/05/22 05:40:47;;;;;;;4.35;2.38;;;;;;;11.84;72.27;100397.72;5058621;28;20028;-80
2021/05/22 05:43:13;;;;;;;9.18;3.00;;;;;;;11.78;72.03;100396.06;5077061;28;20035;-80
2021/05/22 05:45:40;;;;;;;7.70;2.50;;;;;;;11.93;72.14;100390.78;5060759;28;20085;-80
2021/05/22 05:48:09;;;;;;;5.68;2.83;;;;;;;12.30;71.13;100395.94;5073320;28;20027;-80
2021/05/22 05:50:35;;;;;;;3.78;2.45;;;;;;;12.58;70.62;100386.53;5074088;28;20029;-80
2021/05/22 05:53:01;;;;;;;4.65;2.50;;;;;;;13.01;69.56;100377.03;5057173;28;20024;-80
2021/05/22 05:55:27;;;;;;;5.40;2.47;;;;;;;12.69;67.75;100390.00;5075925;28;20478;-80
2021/05/22 05:57:55;;;;;;;7.03;2.70;;;;;;;12.97;68.57;100392.13;5075120;28;20036;-80
2021/05/22 06:00:21;;;;;;;7.45;2.78;;;;;;;13.20;68.39;100379.97;5059226;28;20059;-80
2021/05/22 06:02:47;;;;;;;5.05;2.78;;;;;;;12.71;68.70;100383.28;5060116;28;20060;-80
2021/05/22 06:05:13;;;;;;;2.78;2.10;;;;;;;12.33;69.62;100391.91;5055273;28;20058;-80
2021/05/22 06:07:38;;;;;;;6.88;2.58;;;;;;;12.68;69.38;100385.72;5070969;28;20028;-80
2021/05/22 06:10:06;;;;;;;7.25;2.42;;;;;;;12.19;69.94;100382.75;5053063;28;20051;-80
2021/05/22 06:12:32;;;;;;;4.35;1.98;;;;;;;11.98;71.27;100379.22;5055841;28;20360;-80
2021/05/22 06:15:06;;;;;;;5.78;2.50;;;;;;;12.31;71.11;100386.78;5057605;28;20119;-80
2021/05/22 06:17:31;;;;;;;6.13;2.83;;;;;;;12.68;69.59;100389.19;5052688;28;20032;-80
2021/05/22 06:19:57;;;;;;;6.30;2.38;;;;;;;12.98;68.29;100390.25;5074852;28;20031;-80
2021/05/22 06:22:23;;;;;;;7.15;2.85;;;;;;;13.19;66.30;100391.00;5060718;28;20593;-80
2021/05/22 06:24:48;;;;;;;4.90;2.33;;;;;;;13.43;66.84;100385.81;5057338;28;20231;-80
2021/05/22 06:27:14;;;;;;;7.60;2.90;;;;;;;13.12;67.33;100377.03;5076921;28;20138;-80
2021/05/22 06:29:39;;;;;;;6.72;2.38;;;;;;;12.89;66.52;100379.22;5059810;28;21365;-80
2021/05/22 06:32:05;;;;;;;4.05;2.00;;;;;;;13.05;67.03;100371.91;5057603;28;20081;-80
2021/05/22 06:34:30;;;;;;;7.68;2.17;;;;;;;12.75;67.26;100372.81;5071478;28;20027;-80
2021/05/22 06:36:56;;;;;;;5.55;2.17;;;;;;;12.93;68.42;100379.50;5059409;28;20409;-80
2021/05/22 06:39:22;;;;;;;5.10;2.33;;;;;;;13.17;67.45;100380.50;5068225;28;20059;-80
2021/05/22 06:41:47;;;;;;;3.67;1.98;;;;;;;13.27;67.02;100390.44;5058746;28;20035;-80
2021/05/22 06:44:21;;;;;;;7.18;2.38;;;;;;;13.27;66.74;100382.38;5075060;28;20474;-80
2021/05/22 06:46:47;;;;;;;5.93;2.20;;;;;;;13.35;67.05;100386.38;5056509;28;20028;-79
2021/05/22 06:49:13;;;;;;;5.22;2.17;;;;;;;13.51;66.73;100390.63;5074769;28;20035;-80
2021/05/22 06:51:38;;;;;;;5.55;2.05;;;;;;;13.75;65.87;100398.84;5054883;28;20177;-80
2021/05/22 06:54:04;;;;;;;6.72;1.98;;;;;;;13.67;66.00;100402.13;5059737;28;20020;-80
2021/05/22 06:56:30;;;;;;;5.45;2.53;;;;;;;13.97;65.26;100406.53;5061166;28;20182;-81
2021/05/22 06:58:55;;;;;;;4.68;1.60;;;;;;;13.98;64.71;100411.66;5078434;28;20080;-80
2021/05/22 07:01:22;;;;;;;2.50;1.65;;;;;;;14.05;64.90;100406.78;5062826;28;20032;-81
2021/05/22 07:03:48;;;;;;;3.15;1.90;;;;;;;14.01;64.76;100411.13;5062221;28;20043;-80
2021/05/22 07:06:14;;;;;;;4.00;2.20;;;;;;;13.99;65.06;100409.75;5058812;28;20020;-81
2021/05/22 07:08:40;;;;;;;4.72;2.00;;;;;;;13.76;65.25;100413.94;5060514;28;20036;-81
2021/05/22 07:11:07;;;;;;;7.90;2.10;;;;;;;13.52;66.00;100413.78;5054133;28;20476;-80
2021/05/22 07:13:32;;;;;;;6.25;1.77;;;;;;;13.49;66.15;100415.13;5056380;28;20040;-80
2021/05/22 07:15:58;;;;;;;6.35;2.65;;;;;;;13.51;66.51;100409.47;5060314;28;20058;-80
2021/05/22 07:18:23;;;;;;;3.78;2.13;;;;;;;13.51;67.71;100410.28;5061417;28;20036;-80
2021/05/22 07:20:49;;;;;;;5.18;2.58;;;;;;;13.58;68.39;100407.28;5062015;28;20021;-80
2021/05/22 07:23:15;;;;;;;3.55;2.05;;;;;;;13.50;69.05;100416.75;5059741;28;20020;-81
2021/05/22 07:25:40;;;;;;;4.32;2.55;;;;;;;13.72;68.45;100399.41;5060193;28;20072;-80
2021/05/22 07:28:13;;;;;;;4.40;2.80;;;;;;;13.55;69.58;100410.53;5061479;28;20065;-81
2021/05/22 07:30:39;;;;;;;8.23;2.88;;;;;;;13.41;71.24;100417.56;5059293;28;20516;-80
2021/05/22 07:33:04;;;;;;;4.20;2.40;;;;;;;13.67;69.21;100415.59;5059228;28;20055;-80
2021/05/22 07:35:30;;;;;;;4.45;2.17;;;;;;;13.63;69.28;100420.72;5059507;28;20055;-80
2021/05/22 07:37:55;;;;;;;5.05;2.42;;;;;;;13.60;69.30;100423.97;5075177;28;20031;-80
2021/05/22 07:40:21;;;;;;;3.63;2.00;;;;;;;13.71;70.20;100422.03;5057939;28;20032;-80
2021/05/22 07:42:50;;;;;;;4.22;2.15;;;;;;;13.70;68.90;100415.03;5058772;28;20474;-80
2021/05/22 07:45:18;;;;;;;4.22;2.22;;;;;;;13.60;69.33;100422.06;5057668;28;20063;-81
2021/05/22 07:47:44;;;;;;;4.95;1.92;;;;;;;13.65;69.17;100417.78;5060491;28;20440;-80
2021/05/22 07:50:11;;;;;;;6.85;2.20;;;;;;;13.41;69.30;100410.31;5073523;28;20024;-80
2021/05/22 07:52:38;;;;;;;6.80;2.53;;;;;;;13.22;70.19;100415.47;5062466;28;20415;-80
2021/05/22 07:55:04;;;;;;;3.67;1.63;;;;;;;13.02;70.40;100429.75;5060899;28;20028;-80
2021/05/22 07:57:30;;;;;;;6.03;1.92;;;;;;;13.05;70.59;100435.66;5077795;28;20363;-80
2021/05/22 07:59:55;;;;;;;3.13;1.73;;;;;;;12.99;71.03;100441.06;5076406;28;20028;-80
2021/05/22 08:02:20;;;;;;;3.92;1.85;;;;;;;12.97;70.79;100439.72;5058768;28;20085;-80
2021/05/22 08:04:46;;;;;;;10.57;2.17;;;;;;;13.07;70.22;100436.19;5057754;28;20059;-81
2021/05/22 08:07:13;;;;;;;3.17;1.48;;;;;;;12.94;70.35;100433.00;5063484;28;20027;-80
2021/05/22 08:09:38;;;;;;;4.85;1.45;;;;;;;12.95;69.40;100429.25;5054142;28;20085;-80
2021/05/22 08:12:04;;;;;;;1.63;1.10;;;;;;;13.12;68.79;100422.75;5058290;28;20061;-80
2021/05/22 08:14:30;;;;;;;5.00;1.42;;;;;;;13.31;68.63;100429.19;5058778;28;20062;-80
2021/05/22 08:16:56;;;;;;;4.00;1.17;;;;;;;13.39;68.45;100430.50;5057478;28;20039;-80
2021/05/22 08:19:23;;;;;;;4.25;1.30;;;;;;;13.65;67.53;100442.00;5061408;28;20101;-80
2021/05/22 08:21:48;;;;;;;2.03;1.10;;;;;;;13.95;66.86;100441.03;5062230;28;20691;-80
2021/05/22 08:24:14;;;;;;;5.18;1.27;;;;;;;14.45;65.18;100437.25;5059024;28;20020;-80
2021/05/22 08:26:40;;;;;;;5.72;1.58;;;;;;;14.65;62.91;100441.66;5074987;28;20109;-80
2021/05/22 08:29:06;;;;;;;5.20;1.30;;;;;;;14.50;64.56;100435.31;5056941;28;20097;-80
2021/05/22 08:31:33;;;;;;;4.32;1.50;;;;;;;14.31;64.32;100437.03;5062852;28;20043;-80
2021/05/22 08:34:00;;;;;;;8.00;1.50;;;;;;;15.02;63.54;100430.28;5056586;28;20063;-80
2021/05/22 08:36:25;;;;;;;2.13;1.15;;;;;;;15.60;61.85;100431.00;5056256;28;20024;-80
2021/05/22 08:38:52;;;;;;;3.97;1.00;;;;;;;15.66;58.50;100427.16;5060133;28;20020;-79
2021/05/22 08:41:18;;;;;;;2.15;1.17;;;;;;;15.86;58.16;100436.09;5061058;28;20028;-80
2021/05/22 08:43:44;;;;;;;3.83;1.40;;;;;;;16.10;58.39;100433.31;5059996;28;20051;-81
2021/05/22 08:46:12;;;;;;;2.28;1.40;;;;;;;15.98;57.86;100421.06;5060743;28;20043;-81
2021/05/22 08:48:38;;;;;;;3.13;0.95;;;;;;;16.27;57.46;100422.78;5060198;28;20832;-81
2021/05/22 08:51:08;;;;;;;3.42;1.08;;;;;;;16.13;56.85;100421.91;5062095;28;20512;-81
2021/05/22 08:53:34;;;;;;;2.83;1.00;;;;;;;15.95;56.87;100418.91;5062126;28;20038;-81
2021/05/22 08:56:01;;;;;;;3.28;1.00;;;;;;;16.37;56.66;100422.66;5059829;28;20625;-81
2021/05/22 08:58:26;;;;;;;3.70;1.30;;;;;;;16.08;57.37;100424.72;5055426;28;20082;-81
2021/05/22 09:00:53;;;;;;;2.10;1.02;;;;;;;15.88;56.13;100429.28;5078631;28;20032;-81
2021/05/22 09:03:19;;;;;;;3.75;1.10;;;;;;;15.81;55.72;100417.25;5065461;28;20031;-81
2021/05/22 09:05:45;;;;;;;4.32;1.50;;;;;;;15.83;57.55;100418.56;5061390;28;20032;-75
2021/05/22 09:08:14;;;;;;;2.33;1.10;;;;;;;15.99;56.12;100414.56;5060121;28;20852;-78
2021/05/22 09:11:01;;;;;;;3.42;1.02;;;;;;;15.91;55.78;100415.19;5021979;23;20037;-74
2021/05/22 09:13:29;;;;;;;2.53;1.33;;;;;;;15.41;57.05;100420.13;5006120;28;20022;-74
2021/05/22 09:16:06;;;;;;;5.90;1.45;;;;;;;15.49;57.49;100413.28;5000724;28;20099;-73
2021/05/22 09:18:34;;;;;;;4.72;1.00;;;;;;;15.58;55.66;100413.44;4986648;28;20033;-74
2021/05/22 09:21:03;;;;;;;2.38;0.80;;;;;;;16.05;55.88;100403.69;4985975;28;20022;-75
2021/05/22 09:23:35;;;;;;;3.45;1.02;;;;;;;16.50;53.72;100402.94;4986684;28;20025;-75
2021/05/22 09:26:05;;;;;;;1.75;1.10;;;;;;;16.42;54.12;100414.44;4988080;28;20037;-75
2021/05/22 09:28:53;;;;;;;3.65;1.00;;;;;;;16.78;54.04;100411.19;4987991;28;20076;-75
2021/05/22 09:31:21;;;;;;;1.33;0.77;;;;;;;17.18;53.05;100402.31;4966418;28;20959;-75
2021/05/22 09:33:47;;;;;;;3.20;0.90;;;;;;;17.22;51.00;100408.72;4979845;28;20069;-74
2021/05/22 09:36:15;;;;;;;2.80;1.23;;;;;;;16.72;52.42;100409.69;4977600;28;20484;-75
2021/05/22 09:38:50;;;;;;;2.55;1.17;;;;;;;17.27;52.59;100404.34;4980598;28;20148;-75
2021/05/22 09:41:32;;;;;;;3.50;1.10;;;;;;;17.81;50.44;100401.59;4981385;28;20570;-75
2021/05/22 09:44:10;;;;;;;4.60;0.95;;;;;;;17.87;50.74;100401.47;4981186;28;20029;-74
2021/05/22 09:46:57;;;;;;;3.28;0.90;;;;;;;17.49;50.70;100399.81;4978494;28;20022;-74
2021/05/22 09:49:25;;;;;;;2.70;0.98;;;;;;;17.20;49.78;100399.31;4981916;28;20041;-74
2021/05/22 09:51:56;;;;;;;2.05;0.90;;;;;;;17.56;48.50;100398.59;4979334;28;20057;-74
2021/05/22 09:54:38;;;;;;;1.80;0.85;;;;;;;16.65;50.82;100399.19;4980042;28;20121;-74
2021/05/22 09:57:04;;;;;;;4.80;1.58;;;;;;;15.84;52.85;100397.75;4983552;28;20041;-74
2021/05/22 09:59:29;;;;;;;4.65;1.52;;;;;;;16.23;52.12;100403.66;4982106;28;20022;-74
2021/05/22 10:01:57;;;;;;;2.05;1.10;;;;;;;16.43;52.15;100393.63;4981700;28;20028;-74
2021/05/22 10:04:22;;;;;;;5.10;1.58;;;;;;;16.22;51.79;100401.25;4980023;28;20132;-74
2021/05/22 10:06:48;;;;;;;4.80;1.35;;;;;;;16.31;51.29;100402.97;4980848;28;20097;-75
2021/05/22 10:09:17;;;;;;;3.60;1.42;;;;;;;16.39;51.51;100392.63;4983709;28;20026;-74
2021/05/22 10:12:05;;;;;;;2.95;1.02;;;;;;;17.38;49.60;100386.75;4983173;28;20030;-75
2021/05/22 10:14:41;;;;;;;3.08;1.27;;;;;;;17.81;47.43;100388.06;4985647;28;20037;-74
2021/05/22 10:17:09;;;;;;;3.67;0.88;;;;;;;18.21;45.47;100380.09;4983629;28;20028;-75
2021/05/22 10:19:36;;;;;;;3.75;1.10;;;;;;;17.76;46.04;100377.31;4984548;28;20038;-75
2021/05/22 10:22:04;;;;;;;2.67;0.90;;;;;;;17.98;45.02;100383.91;4956120;28;20030;-75
2021/05/22 10:24:29;;;;;;;3.67;0.90;;;;;;;17.32;45.67;100383.38;4977061;28;20030;-74
2021/05/22 10:26:57;;;;;;;3.28;0.93;;;;;;;17.66;46.28;100377.50;4980727;28;20044;-75
2021/05/22 10:29:24;;;;;;;2.25;1.02;;;;;;;18.14;45.60;100378.94;4980865;28;20033;-75
2021/05/22 10:31:52;;;;;;;3.85;1.08;;;;;;;17.97;44.35;100371.44;4965056;28;22051;-75
2021/05/22 10:34:20;;;;;;;2.10;0.98;;;;;;;18.35;42.75;100372.69;4983092;28;20029;-75
2021/05/22 10:36:49;;;;;;;3.05;1.27;;;;;;;16.91;41.38;100380.66;4965935;28;20655;-75
2021/05/22 10:39:38;;;;;;;5.15;2.10;;;;;;;17.47;41.87;100379.56;4982748;28;20061;-76
2021/05/22 10:42:06;;;;;;;6.00;1.60;;;;;;;17.53;41.81;100373.72;4978744;28;20029;-75
2021/05/22 10:44:34;;;;;;;4.82;2.35;;;;;;;17.83;42.27;100373.41;4983169;28;20030;-75
2021/05/22 10:47:03;;;;;;;12.77;5.95;;;;;;;18.05;41.49;100368.81;4980610;28;20196;-75
2021/05/22 10:49:49;;;;;;;51.90;24.33;;;;;;;18.30;42.41;100369.28;4983094;28;20112;-74
2021/05/22 10:52:20;;;;;;;8.50;1.70;;;;;;;18.51;40.35;100375.03;4982107;28;20033;-74
2021/05/22 10:55:05;;;;;;;12.52;4.97;;;;;;;18.83;40.08;100366.59;4982101;28;20129;-75
2021/05/22 10:57:52;;;;;;;7.03;3.72;;;;;;;19.39;38.44;100370.50;4966271;28;20188;-74
2021/05/22 11:00:22;;;;;;;4.45;0.85;;;;;;;19.36;37.75;100373.03;4983814;28;20033;-75
2021/05/22 11:02:54;;;;;;;3.72;0.80;;;;;;;18.90;36.73;100377.84;4983641;28;20030;-75
2021/05/22 11:05:28;;;;;;;2.63;0.90;;;;;;;18.47;38.54;100357.75;4966217;28;21863;-75
2021/05/22 11:08:03;;;;;;;2.60;0.60;;;;;;;18.28;39.19;100360.66;4982247;28;20603;-75
2021/05/22 11:10:35;;;;;;;3.13;0.82;;;;;;;18.13;38.29;100367.25;4962575;28;20038;-76
2021/05/22 11:13:01;;;;;;;5.22;0.90;;;;;;;18.56;39.17;100369.47;4984669;28;20033;-76
2021/05/22 11:15:46;;;;;;;2.22;0.60;;;;;;;18.74;38.35;100357.63;4983483;28;20077;-76
2021/05/22 11:18:17;;;;;;;2.83;0.95;;;;;;;18.90;37.90;100361.53;4981523;28;20034;-75
2021/05/22 11:21:03;;;;;;;1.55;0.80;;;;;;;19.23;37.13;100358.47;4968608;28;20128;-75
2021/05/22 11:23:29;;;;;;;3.58;0.75;;;;;;;18.43;37.74;100355.66;4982850;28;20027;-75
2021/05/22 11:25:54;;;;;;;4.22;0.93;;;;;;;18.65;37.00;100364.91;4977114;28;20041;-75
2021/05/22 11:28:22;;;;;;;2.90;0.80;;;;;;;18.82;37.08;100353.34;4981131;28;20038;-75